Time;durP1;ratioP1;P1;durP2;ratioP2;P2;SDS_P1;SDS_P2;PMS_P1;PMS_P2;Temp;Humidity;BMP_temperature;BMP_pressure;BME280_temperature;BME280_humidity;BME280_pressure;Samples;Min_cycle;Max_cycle;Signal;HPM_P1;HPM_P2
2022/04/29 00:01:21;;;;;;;8.43;4.82;;;6.40;99.90;;;;;;5046976;28;20448;-73
2022/04/29 00:03:47;;;;;;;9.68;5.15;;;6.40;99.90;;;;;;5064364;28;20427;-72
2022/04/29 00:06:14;;;;;;;11.40;4.93;;;6.40;99.90;;;;;;5047949;28;20417;-72
2022/04/29 00:08:40;;;;;;;9.73;5.15;;;6.50;99.90;;;;;;5051469;28;20454;-73
2022/04/29 00:11:06;;;;;;;10.55;4.60;;;6.50;99.90;;;;;;5050851;28;20437;-72
2022/04/29 00:13:32;;;;;;;9.05;4.53;;;6.50;99.90;;;;;;5048184;28;20418;-72
2022/04/29 00:15:59;;;;;;;11.07;4.97;;;6.50;99.90;;;;;;5046525;28;20429;-72
2022/04/29 00:18:25;;;;;;;9.05;5.10;;;6.50;99.90;;;;;;5048661;28;20436;-73
2022/04/29 00:20:51;;;;;;;12.00;4.88;;;6.50;99.90;;;;;;5047937;28;20807;-73
2022/04/29 00:23:17;;;;;;;10.18;4.78;;;6.50;99.90;;;;;;5049194;28;20437;-73
2022/04/29 00:25:43;;;;;;;12.90;4.60;;;6.40;99.90;;;;;;5054422;28;20574;-73
2022/04/29 00:28:09;;;;;;;12.25;4.63;;;6.50;99.90;;;;;;5065567;28;20435;-74
2022/04/29 00:30:35;;;;;;;12.38;4.40;;;6.40;99.90;;;;;;5046219;28;20502;-73
2022/04/29 00:33:01;;;;;;;13.15;5.32;;;6.30;99.90;;;;;;5048186;28;20460;-73
2022/04/29 00:35:26;;;;;;;10.35;5.05;;;6.00;99.90;;;;;;5045681;28;20520;-72
2022/04/29 00:37:54;;;;;;;9.60;4.88;;;6.10;99.90;;;;;;5054634;28;20509;-71
2022/04/29 00:40:25;;;;;;;8.00;4.47;;;6.10;99.90;;;;;;5058729;28;20822;-72
2022/04/29 00:42:51;;;;;;;9.23;4.38;;;6.10;99.90;;;;;;5047630;28;20850;-71
2022/04/29 00:45:18;;;;;;;14.30;4.80;;;6.20;99.90;;;;;;5053727;28;20456;-72
2022/04/29 00:47:45;;;;;;;12.05;5.53;;;6.20;99.90;;;;;;5054138;28;20467;-72
2022/04/29 00:50:13;;;;;;;9.05;4.80;;;6.20;99.90;;;;;;5052197;28;20443;-72
2022/04/29 00:52:44;;;;;;;15.35;5.90;;;6.20;99.90;;;;;;5048858;28;20421;-73
2022/04/29 00:55:11;;;;;;;11.32;5.45;;;6.00;99.90;;;;;;5046814;28;20942;-72
2022/04/29 00:57:54;;;;;;;10.20;5.83;;;6.10;99.90;;;;;;5056680;28;20424;-72
2022/04/29 01:00:20;;;;;;;12.10;5.50;;;5.90;99.90;;;;;;5050586;28;20567;-73
2022/04/29 01:02:52;;;;;;;12.35;4.97;;;5.70;99.90;;;;;;5046975;28;20505;-72
2022/04/29 01:05:27;;;;;;;11.82;5.70;;;5.90;99.90;;;;;;5047996;28;20429;-72
2022/04/29 01:07:53;;;;;;;9.30;5.10;;;6.00;99.90;;;;;;5048461;28;20941;-72
2022/04/29 01:10:21;;;;;;;11.57;5.78;;;6.00;99.90;;;;;;5049414;28;20474;-71
2022/04/29 01:12:53;;;;;;;10.70;5.53;;;6.00;99.90;;;;;;5048797;28;20444;-72
2022/04/29 01:15:19;;;;;;;13.88;5.65;;;6.00;99.90;;;;;;5047470;28;20425;-71
2022/04/29 01:17:46;;;;;;;10.75;5.68;;;6.00;99.90;;;;;;5064038;28;20428;-71
2022/04/29 01:20:15;;;;;;;9.68;5.78;;;6.00;99.90;;;;;;5052650;28;20444;-72
2022/04/29 01:22:41;;;;;;;13.63;5.72;;;5.90;99.90;;;;;;5046224;28;20441;-72
2022/04/29 01:25:07;;;;;;;11.38;5.32;;;6.00;99.90;;;;;;5053974;28;20409;-72
2022/04/29 01:27:33;;;;;;;14.57;6.43;;;6.00;99.90;;;;;;5053002;28;20471;-72
2022/04/29 01:30:02;;;;;;;12.30;5.60;;;6.00;99.90;;;;;;5045173;28;20460;-72
2022/04/29 01:32:32;;;;;;;16.58;5.60;;;6.00;99.90;;;;;;5045241;28;20685;-72
2022/04/29 01:34:58;;;;;;;9.60;5.55;;;6.00;99.90;;;;;;5045394;28;21230;-72
2022/04/29 01:37:24;;;;;;;12.25;6.30;;;5.80;99.90;;;;;;5058992;28;21261;-73
2022/04/29 01:39:50;;;;;;;12.67;6.73;;;5.80;99.90;;;;;;5051200;28;20421;-73
2022/04/29 01:42:16;;;;;;;17.00;7.18;;;5.90;99.90;;;;;;5052062;28;20570;-72
2022/04/29 01:44:41;;;;;;;10.53;5.90;;;5.90;99.90;;;;;;5057310;28;20465;-73
2022/04/29 01:47:07;;;;;;;9.83;6.23;;;5.80;99.90;;;;;;5049893;28;20923;-72
2022/04/29 01:49:33;;;;;;;10.83;6.03;;;5.60;99.90;;;;;;5045248;28;20434;-73
2022/04/29 01:51:59;;;;;;;10.20;6.50;;;5.50;99.90;;;;;;5057876;28;20446;-73
2022/04/29 01:54:25;;;;;;;11.43;6.27;;;5.40;99.90;;;;;;5062726;28;20808;-73
2022/04/29 01:56:52;;;;;;;10.73;6.10;;;5.50;99.90;;;;;;5052301;28;20409;-70
2022/04/29 01:59:19;;;;;;;9.32;6.07;;;5.60;99.90;;;;;;5048020;28;20440;-73
2022/04/29 02:01:46;;;;;;;9.43;5.75;;;5.50;99.90;;;;;;5068655;28;20423;-73
2022/04/29 02:04:14;;;;;;;12.18;7.25;;;5.50;99.90;;;;;;5051584;28;20455;-73
2022/04/29 02:06:40;;;;;;;8.32;5.90;;;5.50;99.90;;;;;;5058770;28;20451;-73
2022/04/29 02:09:06;;;;;;;9.25;5.82;;;5.50;99.90;;;;;;5050928;28;20490;-72
2022/04/29 02:11:32;;;;;;;10.40;6.17;;;5.50;99.90;;;;;;5065657;28;20524;-72
2022/04/29 02:13:57;;;;;;;8.77;6.30;;;5.50;99.90;;;;;;5056939;28;20838;-70
2022/04/29 02:16:23;;;;;;;8.77;5.63;;;5.40;99.90;;;;;;5050723;28;20437;-72
2022/04/29 02:18:49;;;;;;;10.93;5.60;;;5.40;99.90;;;;;;5047767;28;20427;-72
2022/04/29 02:21:15;;;;;;;10.63;5.93;;;5.50;99.90;;;;;;5058217;28;20433;-72
2022/04/29 02:23:41;;;;;;;9.07;5.93;;;5.60;99.90;;;;;;5050084;28;20401;-72
2022/04/29 02:26:06;;;;;;;13.40;5.82;;;5.70;99.90;;;;;;5051924;28;20425;-72
2022/04/29 02:28:32;;;;;;;10.37;6.43;;;5.70;99.90;;;;;;5063435;28;20721;-72
2022/04/29 02:30:59;;;;;;;11.90;5.82;;;5.80;99.90;;;;;;5050371;28;20443;-72
2022/04/29 02:33:25;;;;;;;10.50;6.10;;;5.80;99.90;;;;;;5049853;28;20437;-72
2022/04/29 02:35:50;;;;;;;10.82;6.65;;;5.80;99.90;;;;;;5049550;28;20424;-72
2022/04/29 02:38:16;;;;;;;9.75;6.18;;;5.80;99.90;;;;;;5051119;28;20498;-72
2022/04/29 02:40:42;;;;;;;14.60;6.95;;;5.80;99.90;;;;;;5057561;28;20768;-72
2022/04/29 02:43:08;;;;;;;9.63;6.00;;;5.80;99.90;;;;;;5049095;28;20477;-72
2022/04/29 02:45:33;;;;;;;11.23;6.57;;;5.70;99.90;;;;;;5049262;28;20959;-72
2022/04/29 02:47:59;;;;;;;15.37;6.83;;;5.70;99.90;;;;;;5048825;28;20451;-72
2022/04/29 02:50:25;;;;;;;11.87;5.83;;;5.80;99.90;;;;;;5048536;28;20486;-73
2022/04/29 02:52:51;;;;;;;12.15;5.72;;;5.80;99.90;;;;;;5060224;28;20561;-72
2022/04/29 02:55:18;;;;;;;14.43;6.60;;;5.80;99.90;;;;;;5052650;28;20998;-72
2022/04/29 02:57:43;;;;;;;13.33;6.20;;;5.80;99.90;;;;;;5049621;28;20418;-72
2022/04/29 03:00:10;;;;;;;14.65;6.00;;;5.80;99.90;;;;;;5047813;28;20455;-73
2022/04/29 03:02:36;;;;;;;10.25;6.40;;;5.80;99.90;;;;;;5050529;28;20914;-72
2022/04/29 03:05:03;;;;;;;9.20;5.60;;;5.80;99.90;;;;;;5053179;28;20463;-71
2022/04/29 03:07:29;;;;;;;16.53;7.00;;;5.70;99.90;;;;;;5052704;28;20428;-71
2022/04/29 03:09:54;;;;;;;10.70;6.20;;;5.70;99.90;;;;;;5052901;28;20407;-71
2022/04/29 03:12:23;;;;;;;10.90;6.00;;;5.60;99.90;;;;;;5048598;28;20437;-72
2022/04/29 03:14:48;;;;;;;16.63;7.10;;;5.60;99.90;;;;;;5049421;28;20422;-71
2022/04/29 03:20:01;;;;;;;10.95;6.18;;;5.60;99.90;;;;;;5044775;28;20728;-72
2022/04/29 03:22:27;;;;;;;9.32;6.45;;;5.40;99.90;;;;;;5049062;28;20421;-72
2022/04/29 03:24:53;;;;;;;10.03;6.17;;;5.40;99.90;;;;;;5049271;28;20732;-72
2022/04/29 03:27:19;;;;;;;12.23;7.07;;;5.40;99.90;;;;;;5049353;28;20440;-72
2022/04/29 03:29:44;;;;;;;10.00;6.95;;;5.40;99.90;;;;;;5055529;28;20504;-72
2022/04/29 03:32:10;;;;;;;11.00;6.30;;;5.30;99.90;;;;;;5032053;28;20433;-72
2022/04/29 03:34:36;;;;;;;9.85;6.35;;;5.20;99.90;;;;;;5042257;28;20423;-71
2022/04/29 03:37:01;;;;;;;9.18;6.38;;;5.30;99.90;;;;;;5049034;28;20894;-71
2022/04/29 03:39:28;;;;;;;11.05;6.82;;;5.40;99.90;;;;;;5048257;28;20464;-72
2022/04/29 03:41:53;;;;;;;9.15;5.95;;;5.10;99.90;;;;;;5049312;28;20449;-71
2022/04/29 03:44:20;;;;;;;12.33;7.07;;;5.00;99.90;;;;;;5047200;28;20458;-71
2022/04/29 03:46:45;;;;;;;12.20;6.72;;;5.30;99.90;;;;;;5062776;28;21017;-72
2022/04/29 03:51:55;;;;;;;16.45;6.75;;;5.40;99.90;;;;;;5049200;28;20465;-71
2022/04/29 03:54:21;;;;;;;10.90;6.65;;;5.60;99.90;;;;;;5051773;28;20449;-72
2022/04/29 03:56:47;;;;;;;9.90;6.70;;;5.70;99.90;;;;;;5049325;28;20431;-71
2022/04/29 03:59:12;;;;;;;10.83;6.87;;;5.80;99.90;;;;;;5054195;28;20424;-72
2022/04/29 04:01:38;;;;;;;12.17;7.13;;;5.80;99.90;;;;;;5059139;28;20432;-72
2022/04/29 04:04:04;;;;;;;8.85;6.53;;;5.70;99.90;;;;;;5048493;28;20412;-72
2022/04/29 04:09:14;;;;;;;11.90;7.30;;;5.60;99.90;;;;;;5058916;28;20437;-72
2022/04/29 04:11:41;;;;;;;11.40;6.93;;;5.60;99.90;;;;;;5048432;28;20442;-73
2022/04/29 04:14:08;;;;;;;10.23;6.78;;;5.50;99.90;;;;;;5049375;28;20428;-72
2022/04/29 04:16:35;;;;;;;11.98;7.20;;;5.60;99.90;;;;;;5054712;28;20484;-72
2022/04/29 04:19:01;;;;;;;12.63;6.75;;;5.60;99.90;;;;;;5046399;28;20413;-71
2022/04/29 04:21:27;;;;;;;12.50;7.00;;;5.60;99.90;;;;;;5048643;28;20780;-69
2022/04/29 04:23:53;;;;;;;9.40;7.15;;;5.70;99.90;;;;;;5049323;28;20402;-71
2022/04/29 04:26:19;;;;;;;12.13;6.88;;;5.80;99.90;;;;;;5054115;28;20439;-71
2022/04/29 04:28:45;;;;;;;11.27;7.30;;;6.00;99.90;;;;;;5048863;28;20509;-72
2022/04/29 04:31:10;;;;;;;12.07;7.30;;;6.00;99.90;;;;;;5067814;28;20766;-71
2022/04/29 04:33:36;;;;;;;12.40;7.80;;;6.10;99.90;;;;;;5064374;28;20500;-71
2022/04/29 04:36:04;;;;;;;11.77;6.93;;;6.10;99.90;;;;;;5056879;28;20430;-71
2022/04/29 04:38:30;;;;;;;12.88;6.72;;;6.20;99.90;;;;;;5047585;28;20441;-70
2022/04/29 04:40:58;;;;;;;9.52;6.60;;;6.10;99.90;;;;;;5048589;28;20828;-71
2022/04/29 04:43:24;;;;;;;12.60;7.45;;;6.10;99.90;;;;;;5048459;28;20559;-71
2022/04/29 04:45:51;;;;;;;15.60;7.60;;;6.10;99.90;;;;;;5051395;28;20586;-71
2022/04/29 04:48:16;;;;;;;9.65;6.80;;;6.20;99.90;;;;;;5047371;28;20420;-71
2022/04/29 04:50:42;;;;;;;9.32;6.85;;;6.10;99.90;;;;;;5048091;28;20835;-71
2022/04/29 04:53:08;;;;;;;8.95;6.97;;;6.10;99.90;;;;;;5049801;28;20433;-71
2022/04/29 04:55:33;;;;;;;11.07;7.00;;;6.10;99.90;;;;;;5046732;28;20417;-72
2022/04/29 04:57:59;;;;;;;11.70;7.10;;;6.20;99.90;;;;;;5052841;28;20441;-72
2022/04/29 05:00:24;;;;;;;7.77;6.97;;;6.50;99.90;;;;;;5050733;28;20424;-71
2022/04/29 05:02:50;;;;;;;10.00;7.00;;;6.60;99.90;;;;;;5057011;28;20431;-71
2022/04/29 05:05:15;;;;;;;8.68;6.72;;;6.60;99.90;;;;;;5046022;28;20428;-71
2022/04/29 05:07:41;;;;;;;9.95;6.80;;;6.40;99.90;;;;;;5044019;28;20433;-71
2022/04/29 05:10:11;;;;;;;9.15;6.60;;;6.60;99.90;;;;;;5048414;28;20417;-71
2022/04/29 05:12:44;;;;;;;8.98;6.72;;;6.60;99.90;;;;;;5054822;28;20430;-71
2022/04/29 05:15:10;;;;;;;9.52;6.75;;;6.70;99.90;;;;;;5047789;28;20902;-72
2022/04/29 05:17:38;;;;;;;11.18;6.97;;;6.70;99.90;;;;;;5052817;28;20429;-72
2022/04/29 05:20:05;;;;;;;9.37;6.50;;;6.60;99.90;;;;;;5045057;28;20491;-71
2022/04/29 05:22:31;;;;;;;10.30;6.28;;;6.60;99.90;;;;;;5035312;28;20840;-70
2022/04/29 05:24:57;;;;;;;11.27;6.80;;;6.70;99.90;;;;;;5052629;28;20411;-71
2022/04/29 05:27:23;;;;;;;10.43;7.45;;;6.70;99.90;;;;;;5047382;28;20441;-71
2022/04/29 05:29:49;;;;;;;11.20;6.55;;;6.70;99.90;;;;;;5046909;28;20414;-70
2022/04/29 05:32:16;;;;;;;10.35;6.72;;;6.70;99.90;;;;;;5047484;28;20429;-70
2022/04/29 05:34:42;;;;;;;13.27;7.45;;;6.80;99.90;;;;;;5042853;28;20429;-70
2022/04/29 05:37:07;;;;;;;13.70;7.07;;;6.70;99.90;;;;;;5049129;28;20415;-70
2022/04/29 05:42:18;;;;;;;10.27;6.60;;;6.90;99.90;;;;;;5035493;28;20417;-70
2022/04/29 05:44:44;;;;;;;11.75;6.75;;;7.10;99.90;;;;;;5036010;28;20433;-71
2022/04/29 05:47:10;;;;;;;11.80;6.80;;;7.00;99.90;;;;;;5051686;28;20533;-71
2022/04/29 05:49:36;;;;;;;7.90;5.80;;;7.00;99.90;;;;;;5046008;28;20476;-71
2022/04/29 05:52:03;;;;;;;10.70;6.30;;;7.20;99.90;;;;;;5048110;28;20865;-71
2022/04/29 05:54:30;;;;;;;8.90;6.00;;;7.30;99.90;;;;;;5052019;28;20428;-71
2022/04/29 05:56:59;;;;;;;6.93;5.78;;;7.30;99.90;;;;;;5054632;28;20500;-71
2022/04/29 05:59:25;;;;;;;10.93;6.32;;;7.50;99.90;;;;;;5051685;28;20431;-71
2022/04/29 06:01:51;;;;;;;10.75;6.10;;;7.50;99.90;;;;;;5046547;28;20433;-71
2022/04/29 06:04:17;;;;;;;11.73;5.85;;;7.50;99.90;;;;;;5056395;28;20488;-70
2022/04/29 06:06:42;;;;;;;9.30;5.88;;;7.50;99.90;;;;;;5060326;28;20840;-70
2022/04/29 06:09:08;;;;;;;8.07;6.00;;;7.70;99.90;;;;;;5059236;28;20419;-72
2022/04/29 06:11:34;;;;;;;9.05;6.30;;;7.70;99.90;;;;;;5049890;28;20425;-71
2022/04/29 06:14:00;;;;;;;8.33;6.27;;;7.60;99.90;;;;;;5050578;28;21261;-71
2022/04/29 06:16:26;;;;;;;9.73;5.65;;;7.80;99.90;;;;;;5054901;28;20948;-71
2022/04/29 06:18:52;;;;;;;8.90;5.95;;;7.70;99.90;;;;;;5050044;28;20429;-73
2022/04/29 06:21:18;;;;;;;13.15;7.22;;;8.00;99.90;;;;;;5045062;28;20947;-74
2022/04/29 06:23:44;;;;;;;10.52;5.75;;;8.00;99.90;;;;;;5060755;28;20790;-73
2022/04/29 06:26:10;;;;;;;11.40;6.60;;;8.20;99.90;;;;;;5051691;28;20440;-74
2022/04/29 06:28:36;;;;;;;10.52;6.20;;;8.20;99.90;;;;;;5052174;28;20418;-72
2022/04/29 06:31:03;;;;;;;8.77;6.15;;;8.30;99.90;;;;;;5045578;28;20437;-73
2022/04/29 06:33:33;;;;;;;9.57;6.30;;;8.40;99.90;;;;;;5046088;28;21232;-73
2022/04/29 06:35:59;;;;;;;6.23;5.63;;;8.50;99.90;;;;;;5043190;28;20443;-72
2022/04/29 06:38:25;;;;;;;7.20;5.60;;;8.70;99.90;;;;;;5045747;28;20512;-72
2022/04/29 06:40:52;;;;;;;10.73;5.30;;;8.80;99.90;;;;;;5048030;28;20429;-86
2022/04/29 06:43:21;;;;;;;9.77;5.13;;;9.00;99.90;;;;;;5046888;28;20927;-70
2022/04/29 06:45:47;;;;;;;8.25;5.55;;;9.10;99.90;;;;;;5048896;28;20428;-74
2022/04/29 06:48:12;;;;;;;11.48;5.43;;;9.00;99.90;;;;;;5048202;28;20444;-79
2022/04/29 06:50:39;;;;;;;11.07;4.90;;;9.20;99.90;;;;;;5058554;28;20424;-73
2022/04/29 06:53:05;;;;;;;8.52;4.68;;;9.20;99.90;;;;;;5056005;28;20427;-70
2022/04/29 06:55:31;;;;;;;10.10;4.83;;;9.30;99.90;;;;;;5048519;28;20962;-70
2022/04/29 06:57:56;;;;;;;9.63;4.37;;;9.40;99.90;;;;;;5049375;28;20562;-71
2022/04/29 07:00:22;;;;;;;7.67;4.63;;;9.20;99.90;;;;;;5054948;28;20524;-71
2022/04/29 07:02:48;;;;;;;7.35;4.10;;;9.20;99.90;;;;;;5048614;28;20445;-72
2022/04/29 07:05:14;;;;;;;5.38;4.00;;;9.10;99.90;;;;;;5052046;28;20128;-72
2022/04/29 07:07:40;;;;;;;7.75;4.95;;;8.90;99.90;;;;;;5051313;28;20047;-72
2022/04/29 07:10:06;;;;;;;9.18;5.15;;;8.80;99.90;;;;;;5050529;28;20049;-72
2022/04/29 07:12:39;;;;;;;10.52;3.95;;;8.80;99.90;;;;;;5050393;28;20049;-71
2022/04/29 07:15:05;;;;;;;29.90;4.43;;;9.40;99.90;;;;;;5065632;28;20432;-71
2022/04/29 07:17:31;;;;;;;7.55;3.35;;;9.10;99.90;;;;;;5052766;28;20398;-71
2022/04/29 07:19:56;;;;;;;10.52;3.80;;;9.10;99.90;;;;;;5053611;28;20041;-72
2022/04/29 07:22:23;;;;;;;7.05;3.05;;;9.00;99.90;;;;;;5055313;28;20506;-72
2022/04/29 07:24:49;;;;;;;6.20;2.85;;;9.10;99.90;;;;;;5064182;28;20045;-72
2022/04/29 07:27:15;;;;;;;7.03;2.63;;;9.40;99.90;;;;;;5070232;28;20048;-72
2022/04/29 07:29:40;;;;;;;5.07;2.72;;;9.40;99.90;;;;;;5061228;28;20151;-74
2022/04/29 07:32:07;;;;;;;8.93;3.15;;;9.40;99.90;;;;;;5049506;28;20044;-73
2022/04/29 07:42:45;;;;;;;6.40;2.25;;;9.10;99.90;;;;;;5046857;28;20048;-72
2022/04/29 07:45:11;;;;;;;6.30;2.03;;;9.30;99.90;;;;;;5050768;28;20037;-73
2022/04/29 07:47:36;;;;;;;6.53;2.30;;;9.20;99.90;;;;;;5032594;28;20037;-73
2022/04/29 07:50:08;;;;;;;2.50;2.22;;;9.10;99.90;;;;;;5065453;28;20076;-73
2022/04/29 07:52:34;;;;;;;6.65;2.70;;;9.10;99.90;;;;;;5051327;28;20108;-73
2022/04/29 07:55:01;;;;;;;6.28;2.63;;;9.30;99.90;;;;;;5049171;28;20043;-73
2022/04/29 07:57:26;;;;;;;13.00;2.83;;;9.40;99.90;;;;;;5056147;28;20056;-72
2022/04/29 07:59:52;;;;;;;5.85;2.00;;;9.40;99.90;;;;;;5070721;28;20385;-72
2022/04/29 08:02:18;;;;;;;5.68;2.13;;;9.50;99.90;;;;;;5049558;28;20041;-75
2022/04/29 08:04:44;;;;;;;3.90;1.80;;;9.50;99.90;;;;;;5049908;28;20048;-73
2022/04/29 08:07:11;;;;;;;5.25;2.35;;;9.80;99.90;;;;;;5048218;28;20076;-72
2022/04/29 08:09:37;;;;;;;9.98;3.58;;;9.90;99.90;;;;;;5049507;28;20053;-73
2022/04/29 08:12:04;;;;;;;12.43;2.85;;;9.80;99.90;;;;;;5046795;28;20041;-72
2022/04/29 08:14:29;;;;;;;4.43;2.65;;;9.80;99.90;;;;;;5049693;28;20056;-71
2022/04/29 08:16:55;;;;;;;7.50;2.88;;;9.70;99.90;;;;;;5055942;28;20044;-72
2022/04/29 08:19:21;;;;;;;4.38;2.63;;;9.40;99.90;;;;;;5035381;28;20041;-72
2022/04/29 08:21:47;;;;;;;2.95;1.80;;;9.50;99.90;;;;;;5053991;28;20056;-71
2022/04/29 08:24:13;;;;;;;2.78;2.08;;;9.40;99.90;;;;;;5055337;28;20044;-73
2022/04/29 08:26:39;;;;;;;2.90;2.17;;;9.40;99.90;;;;;;5047030;28;20092;-72
2022/04/29 08:29:05;;;;;;;7.65;2.20;;;9.60;99.90;;;;;;5047740;28;20403;-74
2022/04/29 08:31:30;;;;;;;9.52;2.33;;;9.40;99.90;;;;;;5047804;28;20047;-73
2022/04/29 08:33:56;;;;;;;9.02;2.13;;;9.80;99.90;;;;;;5047615;28;20040;-71
2022/04/29 08:36:22;;;;;;;6.18;2.92;;;10.00;99.90;;;;;;5050373;28;20085;-73
2022/04/29 08:38:47;;;;;;;5.70;2.15;;;9.70;99.90;;;;;;5044665;28;20124;-73
2022/04/29 08:41:16;;;;;;;14.02;2.85;;;9.90;99.90;;;;;;5060074;28;20053;-73
2022/04/29 08:43:42;;;;;;;6.03;2.35;;;9.80;99.90;;;;;;5052125;28;20044;-74
2022/04/29 08:46:09;;;;;;;8.50;2.78;;;10.00;99.90;;;;;;5062562;28;20096;-74
2022/04/29 08:48:36;;;;;;;5.10;2.22;;;9.90;99.90;;;;;;5058205;28;20084;-76
2022/04/29 08:51:02;;;;;;;6.75;3.00;;;9.90;99.90;;;;;;5054419;28;20051;-75
2022/04/29 08:53:28;;;;;;;8.23;2.00;;;9.60;99.90;;;;;;5050584;28;20084;-75
2022/04/29 08:58:39;;;;;;;4.50;2.22;;;9.60;99.90;;;;;;5043392;28;20053;-74
2022/04/29 09:01:15;;;;;;;4.47;1.70;;;9.50;99.90;;;;;;5050473;28;20052;-75
2022/04/29 09:03:42;;;;;;;14.02;2.95;;;9.40;99.90;;;;;;5064271;28;20080;-75
2022/04/29 09:06:08;;;;;;;5.38;1.70;;;9.40;99.90;;;;;;5049996;28;20121;-75
2022/04/29 09:09:07;;;;;;;5.03;2.50;;;9.40;99.90;;;;;;5047822;28;20124;-73
2022/04/29 09:11:32;;;;;;;5.63;1.98;;;9.30;99.90;;;;;;5046070;28;20041;-72
2022/04/29 09:13:58;;;;;;;5.28;2.00;;;9.30;99.90;;;;;;5053710;28;20047;-73
2022/04/29 09:16:25;;;;;;;5.10;2.05;;;9.40;99.90;;;;;;5050619;28;20049;-73
2022/04/29 09:18:55;;;;;;;17.35;4.72;;;9.40;99.90;;;;;;5052726;28;20481;-72
2022/04/29 09:21:31;;;;;;;8.18;3.53;;;9.50;99.90;;;;;;5044864;28;20628;-72
2022/04/29 09:24:05;;;;;;;7.38;3.25;;;9.50;99.90;;;;;;5051368;28;20051;-72
2022/04/29 09:26:34;;;;;;;5.82;2.38;;;9.60;99.90;;;;;;5045510;28;20053;-72
2022/04/29 09:29:39;;;;;;;12.13;5.10;;;9.70;99.90;;;;;;5043882;28;20045;-72
2022/04/29 09:32:05;;;;;;;6.20;3.42;;;9.70;99.90;;;;;;5010763;28;20049;-73
2022/04/29 09:34:53;;;;;;;2.75;1.85;;;9.70;99.90;;;;;;5033392;28;20037;-72
2022/04/29 09:37:24;;;;;;;19.38;3.25;;;9.70;99.90;;;;;;5044304;28;20120;-73
2022/04/29 09:39:55;;;;;;;7.18;2.30;;;9.60;99.90;;;;;;5047968;28;20317;-73
2022/04/29 09:42:21;;;;;;;4.20;2.58;;;9.60;99.90;;;;;;5048624;28;20102;-74
2022/04/29 09:44:47;;;;;;;6.63;3.05;;;9.50;99.90;;;;;;5046182;28;20108;-72
2022/04/29 09:47:14;;;;;;;6.68;3.15;;;9.70;99.90;;;;;;5061370;28;20052;-72
2022/04/29 09:49:42;;;;;;;5.63;2.72;;;9.80;99.90;;;;;;5051938;28;20078;-74
2022/04/29 09:52:08;;;;;;;7.15;2.35;;;9.70;99.90;;;;;;5046395;28;20041;-73
2022/04/29 09:54:38;;;;;;;5.70;2.17;;;9.70;99.90;;;;;;5061926;28;20051;-72
2022/04/29 09:57:08;;;;;;;5.28;3.72;;;9.70;99.90;;;;;;5043937;28;20499;-74
2022/04/29 09:59:35;;;;;;;4.13;3.10;;;9.70;99.90;;;;;;5048657;28;20052;-72
2022/04/29 10:02:01;;;;;;;6.07;2.25;;;9.70;99.90;;;;;;5040432;28;20049;-73
2022/04/29 10:04:33;;;;;;;3.35;2.22;;;9.70;99.90;;;;;;5044775;28;20079;-73
2022/04/29 10:07:07;;;;;;;6.53;3.33;;;9.70;99.90;;;;;;5055949;28;20495;-72
2022/04/29 10:09:35;;;;;;;6.47;2.88;;;9.50;99.90;;;;;;5048502;28;20048;-72
2022/04/29 10:12:03;;;;;;;13.07;6.20;;;9.60;99.90;;;;;;5047649;28;20071;-73
2022/04/29 10:14:31;;;;;;;7.72;5.22;;;9.50;99.90;;;;;;5051982;28;20075;-72
2022/04/29 10:22:40;;;;;;;8.35;2.67;;;9.70;99.90;;;;;;5052468;28;20122;-72
2022/04/29 10:25:08;;;;;;;6.88;3.05;;;9.90;99.90;;;;;;5050095;28;20070;-72
2022/04/29 10:27:37;;;;;;;7.00;2.60;;;9.80;99.90;;;;;;5044332;28;20053;-72
2022/04/29 10:30:03;;;;;;;7.50;3.63;;;9.70;99.90;;;;;;5048334;28;20040;-71
2022/04/29 10:32:28;;;;;;;5.95;2.13;;;9.80;99.90;;;;;;5056318;28;20040;-71
2022/04/29 10:34:55;;;;;;;5.63;2.20;;;9.70;99.90;;;;;;5043444;28;20528;-71
2022/04/29 10:37:33;;;;;;;4.10;2.92;;;9.70;99.90;;;;;;5052109;28;20056;-71
2022/04/29 10:40:11;;;;;;;9.45;2.78;;;9.60;99.90;;;;;;5053866;28;20041;-72
2022/04/29 10:43:09;;;;;;;4.13;2.58;;;9.90;99.90;;;;;;5040315;28;20044;-73
2022/04/29 10:45:36;;;;;;;6.68;2.55;;;9.80;99.90;;;;;;5063527;28;20072;-73
2022/04/29 10:48:31;;;;;;;6.65;2.60;;;9.80;99.90;;;;;;5059981;28;20048;-72
2022/04/29 10:50:57;;;;;;;5.63;2.78;;;9.70;99.90;;;;;;5062108;28;20041;-72
2022/04/29 10:53:24;;;;;;;5.40;2.10;;;10.00;99.90;;;;;;5063717;28;20063;-71
2022/04/29 10:55:50;;;;;;;4.15;2.00;;;10.00;99.90;;;;;;5054197;28;20041;-71
2022/04/29 10:58:21;;;;;;;7.18;3.10;;;10.00;99.90;;;;;;5050788;28;20044;-71
2022/04/29 11:01:15;;;;;;;7.43;2.30;;;9.90;99.90;;;;;;5055061;28;20033;-71
2022/04/29 11:03:44;;;;;;;4.90;2.33;;;10.20;99.90;;;;;;5053542;28;20036;-70
2022/04/29 11:06:11;;;;;;;5.70;2.65;;;10.20;99.90;;;;;;5055722;28;20060;-68
2022/04/29 11:08:37;;;;;;;5.57;3.17;;;10.20;99.90;;;;;;5052527;28;20072;-72
2022/04/29 11:11:04;;;;;;;8.55;3.65;;;10.00;99.90;;;;;;5052384;28;20048;-73
2022/04/29 11:13:34;;;;;;;6.82;2.85;;;9.90;99.90;;;;;;5050884;28;20053;-71
2022/04/29 11:16:12;;;;;;;8.55;3.15;;;10.00;99.90;;;;;;5051239;28;20044;-71
2022/04/29 11:18:40;;;;;;;6.45;2.67;;;10.10;99.90;;;;;;5067668;28;20520;-73
2022/04/29 11:26:44;;;;;;;7.70;3.42;;;9.90;99.90;;;;;;5048983;28;20096;-73
2022/04/29 11:29:13;;;;;;;8.55;2.40;;;9.80;99.90;;;;;;5053203;28;20078;-73
2022/04/29 11:31:40;;;;;;;7.87;2.97;;;10.00;99.90;;;;;;5054761;28;20052;-73
2022/04/29 11:34:08;;;;;;;4.13;2.58;;;9.90;99.90;;;;;;5053016;28;20048;-73
2022/04/29 11:36:34;;;;;;;4.60;2.42;;;9.90;99.90;;;;;;5037681;28;20045;-73
2022/04/29 11:38:59;;;;;;;6.32;3.58;;;10.10;99.90;;;;;;5056497;28;20032;-72
2022/04/29 11:41:27;;;;;;;4.65;2.17;;;9.90;99.90;;;;;;5063611;28;20080;-71
2022/04/29 11:43:53;;;;;;;8.27;3.58;;;9.80;99.90;;;;;;5051002;28;20403;-73
2022/04/29 11:46:20;;;;;;;4.53;1.85;;;10.00;99.90;;;;;;5055354;28;20491;-72
2022/04/29 11:48:58;;;;;;;5.13;1.95;;;9.80;99.90;;;;;;5069647;28;20048;-72
2022/04/29 11:51:30;;;;;;;5.18;2.10;;;9.80;99.90;;;;;;5062751;28;20071;-72
2022/04/29 11:54:00;;;;;;;5.00;2.20;;;9.90;99.90;;;;;;5030933;28;20423;-72
2022/04/29 11:56:36;;;;;;;4.25;2.47;;;10.00;99.90;;;;;;5033808;28;20045;-72
2022/04/29 11:59:06;;;;;;;3.92;2.20;;;10.00;99.90;;;;;;5059018;28;20040;-72
2022/04/29 12:01:32;;;;;;;3.53;2.42;;;10.10;99.90;;;;;;5068506;28;20564;-72
2022/04/29 12:03:58;;;;;;;8.32;2.25;;;10.20;99.90;;;;;;5051154;28;20032;-72
2022/04/29 12:06:23;;;;;;;8.18;2.53;;;10.20;99.90;;;;;;5049145;28;20094;-72
2022/04/29 12:08:50;;;;;;;9.10;3.00;;;9.90;99.90;;;;;;5047477;28;20150;-75
2022/04/29 12:11:24;;;;;;;8.25;3.45;;;10.10;99.90;;;;;;5049155;28;20376;-73
2022/04/29 12:13:49;;;;;;;7.13;2.22;;;10.00;99.90;;;;;;5050389;28;20045;-72
2022/04/29 12:16:15;;;;;;;3.60;2.00;;;10.10;99.90;;;;;;5048694;28;20048;-73
2022/04/29 12:18:46;;;;;;;7.45;2.28;;;10.30;99.90;;;;;;5048083;28;20053;-73
2022/04/29 12:21:20;;;;;;;6.95;3.15;;;10.20;99.90;;;;;;5070182;28;20036;-73
2022/04/29 12:23:46;;;;;;;7.30;2.60;;;10.20;99.90;;;;;;5065113;28;20045;-73
2022/04/29 12:26:11;;;;;;;4.43;2.75;;;10.10;99.90;;;;;;5064238;28;20051;-72
2022/04/29 12:28:37;;;;;;;4.70;2.25;;;10.10;99.90;;;;;;5064386;28;20071;-73
2022/04/29 12:36:54;;;;;;;5.05;2.30;;;10.40;99.90;;;;;;5036252;28;20053;-72
2022/04/29 12:39:35;;;;;;;6.70;2.60;;;10.30;99.90;;;;;;5059460;28;20049;-73
2022/04/29 12:42:05;;;;;;;5.20;1.70;;;10.20;99.90;;;;;;5046249;28;20127;-72
2022/04/29 12:47:42;;;;;;;4.65;2.17;;;10.40;99.90;;;;;;5062026;28;20060;-72
2022/04/29 12:50:17;;;;;;;14.55;2.40;;;10.60;99.90;;;;;;5061946;28;20372;-72
2022/04/29 12:52:51;;;;;;;5.97;2.13;;;10.90;99.90;;;;;;5065225;28;20448;-70
2022/04/29 12:55:16;;;;;;;4.32;2.05;;;10.60;99.90;;;;;;5067893;28;20056;-73
2022/04/29 12:57:42;;;;;;;3.95;1.90;;;10.70;99.90;;;;;;5064440;28;20123;-74
2022/04/29 13:00:08;;;;;;;2.90;1.80;;;10.70;99.90;;;;;;5055094;28;20562;-73
2022/04/29 13:02:34;;;;;;;4.03;1.67;;;10.60;99.90;;;;;;5043654;28;21304;-73
2022/04/29 13:04:59;;;;;;;5.22;2.75;;;10.70;99.90;;;;;;5059747;28;20488;-74
2022/04/29 13:07:26;;;;;;;5.97;2.40;;;10.40;99.90;;;;;;5058809;28;20087;-73
2022/04/29 13:09:51;;;;;;;3.17;2.03;;;10.50;99.90;;;;;;5045473;28;20119;-73
2022/04/29 13:12:18;;;;;;;4.13;2.40;;;10.50;99.90;;;;;;5052822;28;20091;-73
2022/04/29 13:14:43;;;;;;;2.40;1.55;;;10.30;99.90;;;;;;5041489;28;20044;-74
2022/04/29 13:17:09;;;;;;;5.68;2.53;;;10.10;99.90;;;;;;5046002;28;20037;-74
2022/04/29 13:19:37;;;;;;;4.18;2.30;;;10.10;99.90;;;;;;5065326;28;20029;-73
2022/04/29 13:22:02;;;;;;;10.55;2.40;;;10.30;99.90;;;;;;5046532;28;20052;-73
2022/04/29 13:24:28;;;;;;;3.53;2.15;;;10.30;99.90;;;;;;5055523;28;20041;-73
2022/04/29 13:26:54;;;;;;;3.25;2.05;;;10.40;99.90;;;;;;5049237;28;20049;-73
2022/04/29 13:29:19;;;;;;;12.10;3.28;;;10.40;99.90;;;;;;5044686;28;20075;-75
2022/04/29 13:31:45;;;;;;;5.25;2.88;;;10.40;99.90;;;;;;5044588;28;20096;-74
2022/04/29 13:34:11;;;;;;;4.90;2.25;;;10.60;99.90;;;;;;5056243;28;20089;-75